sensor_id;sensor_type;location;lat;lon;timestamp;P1;durP1;ratioP1;P2;durP2;ratioP2
22152;SDS011;11242;50.536;12.688;2023-08-06T00:00:05;8.65;;;6.63;;
22152;SDS011;11242;50.536;12.688;2023-08-06T00:02:34;9.43;;;7.25;;
22152;SDS011;11242;50.536;12.688;2023-08-06T00:05:00;8.77;;;7.53;;
22152;SDS011;11242;50.536;12.688;2023-08-06T00:07:25;8.18;;;7.38;;
22152;SDS011;11242;50.536;12.688;2023-08-06T00:09:51;12.27;;;7.20;;
22152;SDS011;11242;50.536;12.688;2023-08-06T00:12:17;9.48;;;7.43;;
22152;SDS011;11242;50.536;12.688;2023-08-06T00:14:42;9.48;;;7.80;;
22152;SDS011;11242;50.536;12.688;2023-08-06T00:17:08;9.57;;;7.70;;
22152;SDS011;11242;50.536;12.688;2023-08-06T00:19:34;11.68;;;8.02;;
22152;SDS011;11242;50.536;12.688;2023-08-06T00:22:00;9.48;;;8.50;;
22152;SDS011;11242;50.536;12.688;2023-08-06T00:24:27;9.32;;;7.60;;
22152;SDS011;11242;50.536;12.688;2023-08-06T00:26:53;9.40;;;7.53;;
22152;SDS011;11242;50.536;12.688;2023-08-06T00:29:18;10.02;;;8.60;;
22152;SDS011;11242;50.536;12.688;2023-08-06T00:31:44;8.68;;;7.45;;
22152;SDS011;11242;50.536;12.688;2023-08-06T00:34:10;10.98;;;7.65;;
22152;SDS011;11242;50.536;12.688;2023-08-06T00:36:35;9.73;;;7.32;;
22152;SDS011;11242;50.536;12.688;2023-08-06T00:39:01;12.00;;;7.20;;
22152;SDS011;11242;50.536;12.688;2023-08-06T00:41:27;8.93;;;7.30;;
22152;SDS011;11242;50.536;12.688;2023-08-06T00:43:53;9.45;;;7.50;;
22152;SDS011;11242;50.536;12.688;2023-08-06T00:46:19;9.10;;;7.05;;
22152;SDS011;11242;50.536;12.688;2023-08-06T00:48:45;7.75;;;7.03;;
22152;SDS011;11242;50.536;12.688;2023-08-06T00:51:11;12.25;;;7.70;;
22152;SDS011;11242;50.536;12.688;2023-08-06T00:53:37;8.80;;;7.90;;
22152;SDS011;11242;50.536;12.688;2023-08-06T00:56:04;8.55;;;7.47;;
22152;SDS011;11242;50.536;12.688;2023-08-06T00:58:31;7.80;;;6.88;;
22152;SDS011;11242;50.536;12.688;2023-08-06T01:00:56;8.07;;;6.10;;
22152;SDS011;11242;50.536;12.688;2023-08-06T01:03:22;7.90;;;7.10;;
22152;SDS011;11242;50.536;12.688;2023-08-06T01:05:48;7.45;;;6.60;;
22152;SDS011;11242;50.536;12.688;2023-08-06T01:08:30;6.93;;;6.20;;
22152;SDS011;11242;50.536;12.688;2023-08-06T01:11:31;6.50;;;5.90;;
22152;SDS011;11242;50.536;12.688;2023-08-06T01:14:30;8.45;;;6.10;;
22152;SDS011;11242;50.536;12.688;2023-08-06T01:17:18;7.55;;;5.85;;
22152;SDS011;11242;50.536;12.688;2023-08-06T01:19:46;6.53;;;5.80;;
22152;SDS011;11242;50.536;12.688;2023-08-06T01:22:11;6.30;;;5.70;;
22152;SDS011;11242;50.536;12.688;2023-08-06T01:24:37;6.28;;;5.68;;
22152;SDS011;11242;50.536;12.688;2023-08-06T01:29:39;7.15;;;6.32;;
22152;SDS011;11242;50.536;12.688;2023-08-06T01:32:10;8.70;;;6.60;;
22152;SDS011;11242;50.536;12.688;2023-08-06T01:34:39;8.55;;;5.68;;
22152;SDS011;11242;50.536;12.688;2023-08-06T01:37:06;6.22;;;5.63;;
22152;SDS011;11242;50.536;12.688;2023-08-06T01:39:33;8.38;;;6.00;;
22152;SDS011;11242;50.536;12.688;2023-08-06T01:42:02;8.35;;;6.78;;
22152;SDS011;11242;50.536;12.688;2023-08-06T01:44:28;10.52;;;6.60;;
22152;SDS011;11242;50.536;12.688;2023-08-06T01:46:54;7.43;;;6.72;;
22152;SDS011;11242;50.536;12.688;2023-08-06T01:49:20;7.90;;;7.10;;
22152;SDS011;11242;50.536;12.688;2023-08-06T01:51:46;8.32;;;7.20;;
22152;SDS011;11242;50.536;12.688;2023-08-06T01:54:11;9.05;;;7.70;;
22152;SDS011;11242;50.536;12.688;2023-08-06T01:56:37;8.55;;;7.60;;
22152;SDS011;11242;50.536;12.688;2023-08-06T01:59:02;9.90;;;8.20;;
22152;SDS011;11242;50.536;12.688;2023-08-06T02:01:28;8.80;;;7.85;;
22152;SDS011;11242;50.536;12.688;2023-08-06T02:03:54;12.85;;;7.80;;
22152;SDS011;11242;50.536;12.688;2023-08-06T02:06:20;8.15;;;6.85;;
22152;SDS011;11242;50.536;12.688;2023-08-06T02:08:45;10.40;;;8.10;;
22152;SDS011;11242;50.536;12.688;2023-08-06T02:11:13;11.25;;;8.15;;
22152;SDS011;11242;50.536;12.688;2023-08-06T02:13:38;9.40;;;8.40;;
22152;SDS011;11242;50.536;12.688;2023-08-06T02:16:06;9.32;;;8.05;;
22152;SDS011;11242;50.536;12.688;2023-08-06T02:18:34;9.13;;;8.13;;
22152;SDS011;11242;50.536;12.688;2023-08-06T02:21:00;10.23;;;8.20;;
22152;SDS011;11242;50.536;12.688;2023-08-06T02:23:27;11.48;;;9.00;;
22152;SDS011;11242;50.536;12.688;2023-08-06T02:26:03;13.55;;;8.95;;
22152;SDS011;11242;50.536;12.688;2023-08-06T02:28:30;9.82;;;8.80;;
22152;SDS011;11242;50.536;12.688;2023-08-06T02:30:56;9.30;;;8.40;;
22152;SDS011;11242;50.536;12.688;2023-08-06T02:33:22;10.07;;;8.90;;
22152;SDS011;11242;50.536;12.688;2023-08-06T02:35:47;11.77;;;8.85;;
22152;SDS011;11242;50.536;12.688;2023-08-06T02:38:13;9.88;;;8.05;;
22152;SDS011;11242;50.536;12.688;2023-08-06T02:40:43;9.32;;;8.32;;
22152;SDS011;11242;50.536;12.688;2023-08-06T02:43:10;9.18;;;8.27;;
22152;SDS011;11242;50.536;12.688;2023-08-06T02:45:36;10.02;;;8.98;;
22152;SDS011;11242;50.536;12.688;2023-08-06T02:48:02;9.77;;;8.77;;
22152;SDS011;11242;50.536;12.688;2023-08-06T02:50:28;11.52;;;9.00;;
22152;SDS011;11242;50.536;12.688;2023-08-06T02:52:53;11.80;;;9.88;;
22152;SDS011;11242;50.536;12.688;2023-08-06T02:55:19;10.25;;;9.25;;
22152;SDS011;11242;50.536;12.688;2023-08-06T02:57:47;10.43;;;9.32;;
22152;SDS011;11242;50.536;12.688;2023-08-06T03:00:12;11.55;;;9.30;;
22152;SDS011;11242;50.536;12.688;2023-08-06T03:02:39;12.45;;;9.68;;
22152;SDS011;11242;50.536;12.688;2023-08-06T03:05:27;14.80;;;9.73;;
22152;SDS011;11242;50.536;12.688;2023-08-06T03:07:53;13.70;;;9.50;;
22152;SDS011;11242;50.536;12.688;2023-08-06T03:10:23;9.85;;;8.90;;
22152;SDS011;11242;50.536;12.688;2023-08-06T03:12:50;10.32;;;9.23;;
22152;SDS011;11242;50.536;12.688;2023-08-06T03:15:17;12.00;;;9.57;;
22152;SDS011;11242;50.536;12.688;2023-08-06T03:17:45;10.20;;;9.20;;
22152;SDS011;11242;50.536;12.688;2023-08-06T03:20:11;12.38;;;10.02;;
22152;SDS011;11242;50.536;12.688;2023-08-06T03:22:37;12.80;;;10.20;;
22152;SDS011;11242;50.536;12.688;2023-08-06T03:25:03;11.40;;;10.13;;
22152;SDS011;11242;50.536;12.688;2023-08-06T03:27:29;12.35;;;9.88;;
22152;SDS011;11242;50.536;12.688;2023-08-06T03:29:55;11.50;;;9.95;;
22152;SDS011;11242;50.536;12.688;2023-08-06T03:32:24;13.05;;;10.50;;
22152;SDS011;11242;50.536;12.688;2023-08-06T03:34:50;12.02;;;9.68;;
22152;SDS011;11242;50.536;12.688;2023-08-06T03:37:16;11.20;;;10.05;;
22152;SDS011;11242;50.536;12.688;2023-08-06T03:39:41;14.05;;;10.75;;
22152;SDS011;11242;50.536;12.688;2023-08-06T03:42:07;12.10;;;10.80;;
22152;SDS011;11242;50.536;12.688;2023-08-06T03:44:33;12.05;;;10.80;;
22152;SDS011;11242;50.536;12.688;2023-08-06T03:46:58;11.98;;;10.73;;
22152;SDS011;11242;50.536;12.688;2023-08-06T03:49:24;11.27;;;10.18;;
22152;SDS011;11242;50.536;12.688;2023-08-06T03:51:50;11.57;;;10.38;;
22152;SDS011;11242;50.536;12.688;2023-08-06T03:54:15;12.65;;;10.93;;
22152;SDS011;11242;50.536;12.688;2023-08-06T03:56:41;13.60;;;11.02;;
22152;SDS011;11242;50.536;12.688;2023-08-06T03:59:06;13.73;;;12.00;;
22152;SDS011;11242;50.536;12.688;2023-08-06T04:01:32;13.60;;;12.20;;
22152;SDS011;11242;50.536;12.688;2023-08-06T04:03:58;15.15;;;10.95;;
22152;SDS011;11242;50.536;12.688;2023-08-06T04:06:23;12.77;;;10.57;;
22152;SDS011;11242;50.536;12.688;2023-08-06T04:08:49;11.77;;;10.65;;
22152;SDS011;11242;50.536;12.688;2023-08-06T04:11:15;12.15;;;10.48;;
22152;SDS011;11242;50.536;12.688;2023-08-06T04:13:44;14.90;;;11.07;;
22152;SDS011;11242;50.536;12.688;2023-08-06T04:16:10;12.50;;;10.57;;
22152;SDS011;11242;50.536;12.688;2023-08-06T04:18:35;11.88;;;10.63;;
22152;SDS011;11242;50.536;12.688;2023-08-06T04:21:01;16.23;;;11.85;;
22152;SDS011;11242;50.536;12.688;2023-08-06T04:23:27;13.13;;;11.73;;
22152;SDS011;11242;50.536;12.688;2023-08-06T04:25:57;13.45;;;11.73;;
22152;SDS011;11242;50.536;12.688;2023-08-06T04:28:25;14.10;;;11.40;;
22152;SDS011;11242;50.536;12.688;2023-08-06T04:30:50;13.55;;;11.70;;
22152;SDS011;11242;50.536;12.688;2023-08-06T04:33:18;12.68;;;10.93;;
22152;SDS011;11242;50.536;12.688;2023-08-06T04:35:45;17.52;;;11.48;;
22152;SDS011;11242;50.536;12.688;2023-08-06T04:38:10;12.73;;;11.43;;
22152;SDS011;11242;50.536;12.688;2023-08-06T04:40:36;13.70;;;11.77;;
22152;SDS011;11242;50.536;12.688;2023-08-06T04:43:02;12.35;;;11.05;;
22152;SDS011;11242;50.536;12.688;2023-08-06T04:45:31;11.95;;;10.82;;
22152;SDS011;11242;50.536;12.688;2023-08-06T04:47:57;12.80;;;11.50;;
22152;SDS011;11242;50.536;12.688;2023-08-06T04:50:22;12.10;;;10.90;;
22152;SDS011;11242;50.536;12.688;2023-08-06T04:52:48;12.35;;;11.05;;
22152;SDS011;11242;50.536;12.688;2023-08-06T04:55:13;13.13;;;11.63;;
22152;SDS011;11242;50.536;12.688;2023-08-06T04:57:39;12.07;;;10.45;;
22152;SDS011;11242;50.536;12.688;2023-08-06T05:00:05;11.85;;;10.50;;
22152;SDS011;11242;50.536;12.688;2023-08-06T05:02:31;11.95;;;10.43;;
22152;SDS011;11242;50.536;12.688;2023-08-06T05:05:00;11.23;;;10.18;;
22152;SDS011;11242;50.536;12.688;2023-08-06T05:07:25;12.38;;;10.45;;
22152;SDS011;11242;50.536;12.688;2023-08-06T05:09:51;11.75;;;10.23;;
22152;SDS011;11242;50.536;12.688;2023-08-06T05:12:16;11.30;;;10.10;;
22152;SDS011;11242;50.536;12.688;2023-08-06T05:14:42;11.45;;;10.25;;
22152;SDS011;11242;50.536;12.688;2023-08-06T05:17:07;12.30;;;10.63;;
22152;SDS011;11242;50.536;12.688;2023-08-06T05:19:33;10.57;;;9.57;;
22152;SDS011;11242;50.536;12.688;2023-08-06T05:21:59;11.43;;;9.45;;
22152;SDS011;11242;50.536;12.688;2023-08-06T05:24:26;11.25;;;10.07;;
22152;SDS011;11242;50.536;12.688;2023-08-06T05:26:51;11.07;;;10.07;;
22152;SDS011;11242;50.536;12.688;2023-08-06T05:29:17;11.25;;;9.98;;
22152;SDS011;11242;50.536;12.688;2023-08-06T05:31:42;11.40;;;10.30;;
22152;SDS011;11242;50.536;12.688;2023-08-06T05:34:08;10.85;;;9.77;;
22152;SDS011;11242;50.536;12.688;2023-08-06T05:36:34;13.85;;;10.80;;
22152;SDS011;11242;50.536;12.688;2023-08-06T05:38:59;10.68;;;9.57;;
22152;SDS011;11242;50.536;12.688;2023-08-06T05:41:25;11.13;;;10.05;;
22152;SDS011;11242;50.536;12.688;2023-08-06T05:43:51;10.93;;;9.93;;
22152;SDS011;11242;50.536;12.688;2023-08-06T05:46:16;10.20;;;9.13;;
22152;SDS011;11242;50.536;12.688;2023-08-06T05:48:42;11.10;;;9.60;;
22152;SDS011;11242;50.536;12.688;2023-08-06T05:51:07;9.70;;;8.50;;
22152;SDS011;11242;50.536;12.688;2023-08-06T05:53:33;11.77;;;8.95;;
22152;SDS011;11242;50.536;12.688;2023-08-06T05:55:59;9.30;;;8.40;;
22152;SDS011;11242;50.536;12.688;2023-08-06T05:58:25;7.65;;;6.88;;
22152;SDS011;11242;50.536;12.688;2023-08-06T06:00:54;5.50;;;5.00;;
22152;SDS011;11242;50.536;12.688;2023-08-06T06:03:19;5.10;;;4.70;;
22152;SDS011;11242;50.536;12.688;2023-08-06T06:05:45;5.10;;;4.60;;
22152;SDS011;11242;50.536;12.688;2023-08-06T06:08:10;11.90;;;10.02;;
22152;SDS011;11242;50.536;12.688;2023-08-06T06:10:36;5.05;;;4.65;;
22152;SDS011;11242;50.536;12.688;2023-08-06T06:13:01;5.50;;;5.00;;
22152;SDS011;11242;50.536;12.688;2023-08-06T06:15:27;5.53;;;4.40;;
22152;SDS011;11242;50.536;12.688;2023-08-06T06:17:53;4.80;;;3.78;;
22152;SDS011;11242;50.536;12.688;2023-08-06T06:20:18;6.20;;;4.43;;
22152;SDS011;11242;50.536;12.688;2023-08-06T06:22:44;6.78;;;4.00;;
22152;SDS011;11242;50.536;12.688;2023-08-06T06:25:09;5.57;;;5.07;;
22152;SDS011;11242;50.536;12.688;2023-08-06T06:27:35;18.50;;;16.60;;
22152;SDS011;11242;50.536;12.688;2023-08-06T06:30:01;8.05;;;6.53;;
22152;SDS011;11242;50.536;12.688;2023-08-06T06:32:27;7.35;;;5.28;;
22152;SDS011;11242;50.536;12.688;2023-08-06T06:34:52;4.82;;;3.75;;
22152;SDS011;11242;50.536;12.688;2023-08-06T06:37:18;4.00;;;3.70;;
22152;SDS011;11242;50.536;12.688;2023-08-06T06:39:44;4.15;;;3.75;;
22152;SDS011;11242;50.536;12.688;2023-08-06T06:42:10;6.50;;;3.88;;
22152;SDS011;11242;50.536;12.688;2023-08-06T06:44:41;3.83;;;3.07;;
22152;SDS011;11242;50.536;12.688;2023-08-06T06:47:07;6.35;;;5.75;;
22152;SDS011;11242;50.536;12.688;2023-08-06T06:49:32;4.22;;;3.83;;
22152;SDS011;11242;50.536;12.688;2023-08-06T06:51:58;6.38;;;3.38;;
22152;SDS011;11242;50.536;12.688;2023-08-06T06:54:24;3.80;;;3.50;;
22152;SDS011;11242;50.536;12.688;2023-08-06T06:56:49;6.03;;;5.22;;
22152;SDS011;11242;50.536;12.688;2023-08-06T06:59:15;5.50;;;4.90;;
22152;SDS011;11242;50.536;12.688;2023-08-06T07:01:40;3.97;;;3.67;;
22152;SDS011;11242;50.536;12.688;2023-08-06T07:04:06;3.25;;;2.95;;
22152;SDS011;11242;50.536;12.688;2023-08-06T07:06:32;3.47;;;3.17;;
22152;SDS011;11242;50.536;12.688;2023-08-06T07:08:57;3.10;;;2.90;;
22152;SDS011;11242;50.536;12.688;2023-08-06T07:11:23;3.25;;;2.95;;
22152;SDS011;11242;50.536;12.688;2023-08-06T07:13:49;3.10;;;2.90;;
22152;SDS011;11242;50.536;12.688;2023-08-06T07:16:21;3.63;;;3.33;;
22152;SDS011;11242;50.536;12.688;2023-08-06T07:18:46;5.13;;;2.92;;
22152;SDS011;11242;50.536;12.688;2023-08-06T07:21:12;3.22;;;2.92;;
22152;SDS011;11242;50.536;12.688;2023-08-06T07:23:37;3.08;;;2.80;;
22152;SDS011;11242;50.536;12.688;2023-08-06T07:26:03;8.57;;;7.88;;
22152;SDS011;11242;50.536;12.688;2023-08-06T07:28:28;3.10;;;2.90;;
22152;SDS011;11242;50.536;12.688;2023-08-06T07:30:54;3.08;;;2.88;;
22152;SDS011;11242;50.536;12.688;2023-08-06T07:33:20;2.72;;;2.53;;
22152;SDS011;11242;50.536;12.688;2023-08-06T07:35:45;2.67;;;2.47;;
22152;SDS011;11242;50.536;12.688;2023-08-06T07:38:11;3.63;;;2.67;;
22152;SDS011;11242;50.536;12.688;2023-08-06T07:40:37;3.40;;;2.53;;
22152;SDS011;11242;50.536;12.688;2023-08-06T07:43:03;2.65;;;2.45;;
22152;SDS011;11242;50.536;12.688;2023-08-06T07:45:33;2.65;;;2.45;;
22152;SDS011;11242;50.536;12.688;2023-08-06T07:48:00;2.83;;;2.60;;
22152;SDS011;11242;50.536;12.688;2023-08-06T07:50:26;2.92;;;2.72;;
22152;SDS011;11242;50.536;12.688;2023-08-06T07:52:51;2.40;;;2.20;;
22152;SDS011;11242;50.536;12.688;2023-08-06T07:55:17;3.35;;;2.58;;
22152;SDS011;11242;50.536;12.688;2023-08-06T07:57:42;2.70;;;2.50;;
22152;SDS011;11242;50.536;12.688;2023-08-06T08:00:08;2.72;;;2.53;;
22152;SDS011;11242;50.536;12.688;2023-08-06T08:02:37;2.42;;;2.30;;
22152;SDS011;11242;50.536;12.688;2023-08-06T08:05:03;3.28;;;2.97;;
22152;SDS011;11242;50.536;12.688;2023-08-06T08:07:29;2.30;;;2.20;;
22152;SDS011;11242;50.536;12.688;2023-08-06T08:09:56;2.50;;;2.30;;
22152;SDS011;11242;50.536;12.688;2023-08-06T08:12:22;3.35;;;2.40;;
22152;SDS011;11242;50.536;12.688;2023-08-06T08:14:47;2.42;;;2.28;;
22152;SDS011;11242;50.536;12.688;2023-08-06T08:17:13;4.85;;;2.42;;
22152;SDS011;11242;50.536;12.688;2023-08-06T08:19:39;2.75;;;2.55;;
22152;SDS011;11242;50.536;12.688;2023-08-06T08:22:05;2.45;;;2.33;;
22152;SDS011;11242;50.536;12.688;2023-08-06T08:24:31;3.28;;;2.10;;
22152;SDS011;11242;50.536;12.688;2023-08-06T08:26:56;2.70;;;2.50;;
22152;SDS011;11242;50.536;12.688;2023-08-06T08:29:22;2.47;;;2.25;;
22152;SDS011;11242;50.536;12.688;2023-08-06T08:31:48;3.58;;;2.50;;
22152;SDS011;11242;50.536;12.688;2023-08-06T08:34:15;2.70;;;2.50;;
22152;SDS011;11242;50.536;12.688;2023-08-06T08:36:41;2.65;;;2.45;;
22152;SDS011;11242;50.536;12.688;2023-08-06T08:39:07;2.50;;;2.30;;
22152;SDS011;11242;50.536;12.688;2023-08-06T08:41:33;3.42;;;2.53;;
22152;SDS011;11242;50.536;12.688;2023-08-06T08:44:01;2.67;;;2.47;;
22152;SDS011;11242;50.536;12.688;2023-08-06T08:46:29;2.50;;;2.30;;
22152;SDS011;11242;50.536;12.688;2023-08-06T08:48:56;2.40;;;2.20;;
22152;SDS011;11242;50.536;12.688;2023-08-06T08:51:24;2.60;;;2.40;;
22152;SDS011;11242;50.536;12.688;2023-08-06T08:53:52;3.35;;;2.25;;
22152;SDS011;11242;50.536;12.688;2023-08-06T08:56:21;3.00;;;2.70;;
22152;SDS011;11242;50.536;12.688;2023-08-06T08:58:47;2.33;;;2.13;;
22152;SDS011;11242;50.536;12.688;2023-08-06T09:01:13;2.90;;;2.60;;
22152;SDS011;11242;50.536;12.688;2023-08-06T09:03:40;2.70;;;2.50;;
22152;SDS011;11242;50.536;12.688;2023-08-06T09:06:06;2.50;;;2.30;;
22152;SDS011;11242;50.536;12.688;2023-08-06T09:08:36;2.47;;;2.28;;
22152;SDS011;11242;50.536;12.688;2023-08-06T09:11:07;4.35;;;3.47;;
22152;SDS011;11242;50.536;12.688;2023-08-06T09:13:35;2.50;;;2.30;;
22152;SDS011;11242;50.536;12.688;2023-08-06T09:16:02;3.25;;;2.65;;
22152;SDS011;11242;50.536;12.688;2023-08-06T09:18:29;2.63;;;2.42;;
22152;SDS011;11242;50.536;12.688;2023-08-06T09:20:56;2.88;;;2.55;;
22152;SDS011;11242;50.536;12.688;2023-08-06T09:23:29;2.70;;;2.50;;
22152;SDS011;11242;50.536;12.688;2023-08-06T09:25:56;5.53;;;2.80;;
22152;SDS011;11242;50.536;12.688;2023-08-06T09:28:22;3.30;;;3.00;;
22152;SDS011;11242;50.536;12.688;2023-08-06T09:30:49;3.65;;;2.97;;
22152;SDS011;11242;50.536;12.688;2023-08-06T09:33:18;3.13;;;2.55;;
22152;SDS011;11242;50.536;12.688;2023-08-06T09:35:45;3.05;;;2.83;;
22152;SDS011;11242;50.536;12.688;2023-08-06T09:38:13;3.13;;;2.83;;
22152;SDS011;11242;50.536;12.688;2023-08-06T09:40:39;3.17;;;2.78;;
22152;SDS011;11242;50.536;12.688;2023-08-06T09:43:05;3.33;;;2.60;;
22152;SDS011;11242;50.536;12.688;2023-08-06T09:45:35;4.93;;;2.80;;
22152;SDS011;11242;50.536;12.688;2023-08-06T09:48:03;3.10;;;2.80;;
22152;SDS011;11242;50.536;12.688;2023-08-06T09:50:30;2.90;;;2.70;;
22152;SDS011;11242;50.536;12.688;2023-08-06T09:52:58;3.00;;;2.80;;
22152;SDS011;11242;50.536;12.688;2023-08-06T09:55:25;4.13;;;3.05;;
22152;SDS011;11242;50.536;12.688;2023-08-06T09:57:52;5.28;;;2.63;;
22152;SDS011;11242;50.536;12.688;2023-08-06T10:00:18;2.95;;;2.63;;
22152;SDS011;11242;50.536;12.688;2023-08-06T10:02:45;3.05;;;2.78;;
22152;SDS011;11242;50.536;12.688;2023-08-06T10:05:12;2.92;;;2.60;;
22152;SDS011;11242;50.536;12.688;2023-08-06T10:07:37;3.20;;;2.95;;
22152;SDS011;11242;50.536;12.688;2023-08-06T10:10:04;2.78;;;2.58;;
22152;SDS011;11242;50.536;12.688;2023-08-06T10:12:36;3.28;;;2.75;;
22152;SDS011;11242;50.536;12.688;2023-08-06T10:15:06;3.13;;;2.80;;
22152;SDS011;11242;50.536;12.688;2023-08-06T10:17:36;3.00;;;2.70;;
22152;SDS011;11242;50.536;12.688;2023-08-06T10:20:03;3.72;;;3.10;;
22152;SDS011;11242;50.536;12.688;2023-08-06T10:22:32;3.67;;;3.38;;
22152;SDS011;11242;50.536;12.688;2023-08-06T10:24:58;2.88;;;2.67;;
22152;SDS011;11242;50.536;12.688;2023-08-06T10:27:39;3.65;;;2.50;;
22152;SDS011;11242;50.536;12.688;2023-08-06T10:30:21;2.80;;;2.60;;
22152;SDS011;11242;50.536;12.688;2023-08-06T10:38:02;3.00;;;2.53;;
22152;SDS011;11242;50.536;12.688;2023-08-06T10:40:28;3.25;;;2.72;;
22152;SDS011;11242;50.536;12.688;2023-08-06T10:42:58;3.42;;;2.40;;
22152;SDS011;11242;50.536;12.688;2023-08-06T10:45:24;2.38;;;2.17;;
22152;SDS011;11242;50.536;12.688;2023-08-06T10:47:53;2.53;;;2.30;;
22152;SDS011;11242;50.536;12.688;2023-08-06T10:50:21;2.30;;;2.10;;
22152;SDS011;11242;50.536;12.688;2023-08-06T10:52:47;2.38;;;2.10;;
22152;SDS011;11242;50.536;12.688;2023-08-06T10:55:14;2.55;;;2.20;;
22152;SDS011;11242;50.536;12.688;2023-08-06T10:57:47;2.42;;;2.13;;
22152;SDS011;11242;50.536;12.688;2023-08-06T11:00:12;2.72;;;2.00;;
22152;SDS011;11242;50.536;12.688;2023-08-06T11:02:39;2.17;;;2.08;;
22152;SDS011;11242;50.536;12.688;2023-08-06T11:05:08;2.92;;;2.20;;
22152;SDS011;11242;50.536;12.688;2023-08-06T11:07:34;3.78;;;2.45;;
22152;SDS011;11242;50.536;12.688;2023-08-06T11:10:02;2.55;;;2.35;;
22152;SDS011;11242;50.536;12.688;2023-08-06T11:12:29;2.55;;;2.08;;
22152;SDS011;11242;50.536;12.688;2023-08-06T11:14:55;3.05;;;2.25;;
22152;SDS011;11242;50.536;12.688;2023-08-06T11:17:21;2.65;;;2.30;;
22152;SDS011;11242;50.536;12.688;2023-08-06T11:19:48;5.70;;;2.13;;
22152;SDS011;11242;50.536;12.688;2023-08-06T11:22:37;3.88;;;2.25;;
22152;SDS011;11242;50.536;12.688;2023-08-06T11:25:20;2.65;;;2.10;;
22152;SDS011;11242;50.536;12.688;2023-08-06T11:28:08;2.47;;;2.25;;
22152;SDS011;11242;50.536;12.688;2023-08-06T11:30:51;3.47;;;2.35;;
22152;SDS011;11242;50.536;12.688;2023-08-06T11:33:22;4.05;;;2.53;;
22152;SDS011;11242;50.536;12.688;2023-08-06T11:36:05;3.10;;;2.70;;
22152;SDS011;11242;50.536;12.688;2023-08-06T11:38:54;3.33;;;3.03;;
22152;SDS011;11242;50.536;12.688;2023-08-06T11:41:32;3.17;;;2.85;;
22152;SDS011;11242;50.536;12.688;2023-08-06T11:44:21;4.07;;;2.28;;
22152;SDS011;11242;50.536;12.688;2023-08-06T11:47:16;2.00;;;1.90;;
22152;SDS011;11242;50.536;12.688;2023-08-06T11:49:51;2.45;;;2.05;;
22152;SDS011;11242;50.536;12.688;2023-08-06T11:52:34;1.75;;;1.63;;
22152;SDS011;11242;50.536;12.688;2023-08-06T11:55:24;1.77;;;1.67;;
22152;SDS011;11242;50.536;12.688;2023-08-06T11:57:57;3.90;;;2.20;;
22152;SDS011;11242;50.536;12.688;2023-08-06T12:00:47;1.92;;;1.73;;
22152;SDS011;11242;50.536;12.688;2023-08-06T12:03:29;2.17;;;2.00;;
22152;SDS011;11242;50.536;12.688;2023-08-06T12:06:20;3.58;;;2.00;;
22152;SDS011;11242;50.536;12.688;2023-08-06T12:09:09;3.55;;;1.80;;
22152;SDS011;11242;50.536;12.688;2023-08-06T12:11:54;2.80;;;1.83;;
22152;SDS011;11242;50.536;12.688;2023-08-06T12:14:40;2.05;;;1.85;;
22152;SDS011;11242;50.536;12.688;2023-08-06T12:17:25;3.58;;;2.15;;
22152;SDS011;11242;50.536;12.688;2023-08-06T12:20:07;2.13;;;1.92;;
22152;SDS011;11242;50.536;12.688;2023-08-06T12:22:49;2.40;;;2.20;;
22152;SDS011;11242;50.536;12.688;2023-08-06T12:25:38;3.38;;;2.20;;
22152;SDS011;11242;50.536;12.688;2023-08-06T12:28:27;2.92;;;1.92;;
22152;SDS011;11242;50.536;12.688;2023-08-06T12:31:16;1.70;;;1.60;;
22152;SDS011;11242;50.536;12.688;2023-08-06T12:34:00;4.85;;;2.08;;
22152;SDS011;11242;50.536;12.688;2023-08-06T12:36:58;2.00;;;1.80;;
22152;SDS011;11242;50.536;12.688;2023-08-06T12:39:42;2.17;;;1.70;;
22152;SDS011;11242;50.536;12.688;2023-08-06T12:42:28;1.60;;;1.50;;
22152;SDS011;11242;50.536;12.688;2023-08-06T12:45:23;2.00;;;1.80;;
22152;SDS011;11242;50.536;12.688;2023-08-06T12:48:05;2.10;;;1.73;;
22152;SDS011;11242;50.536;12.688;2023-08-06T12:50:48;2.53;;;1.90;;
22152;SDS011;11242;50.536;12.688;2023-08-06T12:53:34;2.75;;;2.13;;
22152;SDS011;11242;50.536;12.688;2023-08-06T12:56:14;2.38;;;2.08;;
22152;SDS011;11242;50.536;12.688;2023-08-06T12:58:58;2.40;;;2.20;;
22152;SDS011;11242;50.536;12.688;2023-08-06T13:01:39;2.63;;;2.10;;
22152;SDS011;11242;50.536;12.688;2023-08-06T13:04:42;1.38;;;1.27;;
22152;SDS011;11242;50.536;12.688;2023-08-06T13:07:33;1.52;;;1.42;;
22152;SDS011;11242;50.536;12.688;2023-08-06T13:10:08;6.82;;;2.20;;
22152;SDS011;11242;50.536;12.688;2023-08-06T13:12:42;4.20;;;2.05;;
22152;SDS011;11242;50.536;12.688;2023-08-06T13:15:25;2.20;;;2.00;;
22152;SDS011;11242;50.536;12.688;2023-08-06T13:18:04;2.20;;;1.90;;
22152;SDS011;11242;50.536;12.688;2023-08-06T13:20:44;3.67;;;2.33;;
22152;SDS011;11242;50.536;12.688;2023-08-06T13:23:26;3.08;;;2.20;;
22152;SDS011;11242;50.536;12.688;2023-08-06T13:26:03;7.75;;;6.22;;
22152;SDS011;11242;50.536;12.688;2023-08-06T13:28:43;8.07;;;6.07;;
22152;SDS011;11242;50.536;12.688;2023-08-06T13:31:24;4.60;;;3.53;;
22152;SDS011;11242;50.536;12.688;2023-08-06T13:34:09;3.60;;;2.20;;
22152;SDS011;11242;50.536;12.688;2023-08-06T13:36:52;2.95;;;2.28;;
22152;SDS011;11242;50.536;12.688;2023-08-06T13:39:37;3.42;;;2.67;;
22152;SDS011;11242;50.536;12.688;2023-08-06T13:42:22;5.20;;;2.85;;
22152;SDS011;11242;50.536;12.688;2023-08-06T13:45:11;2.42;;;2.00;;
22152;SDS011;11242;50.536;12.688;2023-08-06T13:47:59;4.15;;;2.20;;
22152;SDS011;11242;50.536;12.688;2023-08-06T13:50:42;3.72;;;1.83;;
22152;SDS011;11242;50.536;12.688;2023-08-06T13:53:35;2.15;;;1.73;;
22152;SDS011;11242;50.536;12.688;2023-08-06T13:56:15;2.78;;;2.00;;
22152;SDS011;11242;50.536;12.688;2023-08-06T13:59:00;3.42;;;2.05;;
22152;SDS011;11242;50.536;12.688;2023-08-06T14:01:45;3.45;;;1.85;;
22152;SDS011;11242;50.536;12.688;2023-08-06T14:04:20;9.60;;;1.92;;
22152;SDS011;11242;50.536;12.688;2023-08-06T14:07:03;4.03;;;1.90;;
22152;SDS011;11242;50.536;12.688;2023-08-06T14:09:48;3.40;;;2.28;;
22152;SDS011;11242;50.536;12.688;2023-08-06T14:12:34;2.35;;;1.90;;
22152;SDS011;11242;50.536;12.688;2023-08-06T14:15:15;4.85;;;2.05;;
22152;SDS011;11242;50.536;12.688;2023-08-06T14:20:45;3.05;;;1.67;;
22152;SDS011;11242;50.536;12.688;2023-08-06T14:23:28;1.95;;;1.60;;
22152;SDS011;11242;50.536;12.688;2023-08-06T14:26:20;1.75;;;1.63;;
22152;SDS011;11242;50.536;12.688;2023-08-06T14:29:08;2.22;;;2.03;;
22152;SDS011;11242;50.536;12.688;2023-08-06T14:31:52;2.10;;;1.90;;
22152;SDS011;11242;50.536;12.688;2023-08-06T14:34:38;2.40;;;2.20;;
22152;SDS011;11242;50.536;12.688;2023-08-06T14:37:22;4.03;;;2.25;;
22152;SDS011;11242;50.536;12.688;2023-08-06T14:40:06;5.00;;;2.65;;
22152;SDS011;11242;50.536;12.688;2023-08-06T14:42:48;5.55;;;3.38;;
22152;SDS011;11242;50.536;12.688;2023-08-06T14:45:27;7.55;;;4.43;;
22152;SDS011;11242;50.536;12.688;2023-08-06T14:48:07;10.93;;;8.63;;
22152;SDS011;11242;50.536;12.688;2023-08-06T14:50:39;5.47;;;4.35;;
22152;SDS011;11242;50.536;12.688;2023-08-06T14:53:20;6.20;;;2.58;;
22152;SDS011;11242;50.536;12.688;2023-08-06T14:56:11;3.88;;;2.60;;
22152;SDS011;11242;50.536;12.688;2023-08-06T14:58:51;5.25;;;3.40;;